Terminal Aerodrome Forecast
Issued by NWS San Angelo, TX

Home | Current Version | Previous Version | Text Only | Print | Product List | Glossary On
Versions: 1 2 3 4 5 6 7 8 9 10 11 12 13 14
000
FTUS44 KSJT 310500
TAFSJT
TAF
KSJT 310528Z 3106/0106 08007KT P6SM BKN050
     FM310800 11008KT 5SM -RA BR OVC025
     FM311200 12010KT 3SM RA BR OVC006
     FM312000 15010KT 5SM BR VCSH OVC008
     FM010300 17008KT 4SM -DZ BR OVC004=

USA.gov is the U.S. government's official web portal to all federal, state and local government web resources and services.